sensor_id;sensor_type;location;lat;lon;timestamp;pressure;altitude;pressure_sealevel;temperature
22269;BMP280;11303;50.772;19.670;2023-05-15T00:00:02;98474.66;;;11.25
22269;BMP280;11303;50.772;19.670;2023-05-15T00:02:06;98465.34;;;11.24
22269;BMP280;11303;50.772;19.670;2023-05-15T00:04:08;98466.09;;;11.24
22269;BMP280;11303;50.772;19.670;2023-05-15T00:06:10;98458.28;;;11.24
22269;BMP280;11303;50.772;19.670;2023-05-15T00:08:11;98455.69;;;11.24
22269;BMP280;11303;50.772;19.670;2023-05-15T00:10:13;98451.59;;;11.23
22269;BMP280;11303;50.772;19.670;2023-05-15T00:12:15;98453.03;;;11.21
22269;BMP280;11303;50.772;19.670;2023-05-15T00:14:16;98444.13;;;11.22
22269;BMP280;11303;50.772;19.670;2023-05-15T00:16:18;98441.19;;;11.23
22269;BMP280;11303;50.772;19.670;2023-05-15T00:18:19;98440.78;;;11.21
22269;BMP280;11303;50.772;19.670;2023-05-15T00:20:21;98441.91;;;11.20
22269;BMP280;11303;50.772;19.670;2023-05-15T00:22:22;98443.72;;;11.20
22269;BMP280;11303;50.772;19.670;2023-05-15T00:24:24;98442.25;;;11.19
22269;BMP280;11303;50.772;19.670;2023-05-15T00:26:26;98446.31;;;11.20
22269;BMP280;11303;50.772;19.670;2023-05-15T00:28:27;98441.13;;;11.20
22269;BMP280;11303;50.772;19.670;2023-05-15T00:30:29;98434.44;;;11.19
22269;BMP280;11303;50.772;19.670;2023-05-15T00:32:30;98443.66;;;11.16
22269;BMP280;11303;50.772;19.670;2023-05-15T00:34:32;98436.59;;;11.17
22269;BMP280;11303;50.772;19.670;2023-05-15T00:36:34;98432.53;;;11.16
22269;BMP280;11303;50.772;19.670;2023-05-15T00:38:35;98427.66;;;11.14
22269;BMP280;11303;50.772;19.670;2023-05-15T00:40:38;98418.38;;;11.13
22269;BMP280;11303;50.772;19.670;2023-05-15T00:42:40;98424.28;;;11.14
22269;BMP280;11303;50.772;19.670;2023-05-15T00:44:43;98415.72;;;11.10
22269;BMP280;11303;50.772;19.670;2023-05-15T00:46:45;98411.94;;;11.07
22269;BMP280;11303;50.772;19.670;2023-05-15T00:48:49;98411.25;;;11.10
22269;BMP280;11303;50.772;19.670;2023-05-15T00:50:51;98408.25;;;11.08
22269;BMP280;11303;50.772;19.670;2023-05-15T00:52:54;98408.66;;;11.10
22269;BMP280;11303;50.772;19.670;2023-05-15T00:54:55;98397.84;;;11.08
22269;BMP280;11303;50.772;19.670;2023-05-15T00:56:58;98390.03;;;11.08
22269;BMP280;11303;50.772;19.670;2023-05-15T00:59:02;98396.34;;;11.07
22269;BMP280;11303;50.772;19.670;2023-05-15T01:01:04;98400.03;;;11.06
22269;BMP280;11303;50.772;19.670;2023-05-15T01:03:09;98401.53;;;11.07
22269;BMP280;11303;50.772;19.670;2023-05-15T01:05:10;98397.41;;;11.06
22269;BMP280;11303;50.772;19.670;2023-05-15T01:07:12;98394.09;;;11.05
22269;BMP280;11303;50.772;19.670;2023-05-15T01:09:14;98393.00;;;11.06
22269;BMP280;11303;50.772;19.670;2023-05-15T01:11:16;98386.63;;;11.04
22269;BMP280;11303;50.772;19.670;2023-05-15T01:13:22;98381.03;;;11.02
22269;BMP280;11303;50.772;19.670;2023-05-15T01:15:23;98379.19;;;11.02
22269;BMP280;11303;50.772;19.670;2023-05-15T01:17:26;98378.44;;;11.02
22269;BMP280;11303;50.772;19.670;2023-05-15T01:19:29;98376.19;;;11.00
22269;BMP280;11303;50.772;19.670;2023-05-15T01:26:11;98366.13;;;10.99
22269;BMP280;11303;50.772;19.670;2023-05-15T01:28:29;98358.31;;;10.99
22269;BMP280;11303;50.772;19.670;2023-05-15T01:30:35;98354.25;;;10.98
22269;BMP280;11303;50.772;19.670;2023-05-15T01:37:13;98348.66;;;10.99
22269;BMP280;11303;50.772;19.670;2023-05-15T01:39:19;98346.06;;;10.99
22269;BMP280;11303;50.772;19.670;2023-05-15T01:43:28;98333.44;;;10.98
22269;BMP280;11303;50.772;19.670;2023-05-15T01:45:31;98329.72;;;10.99
22269;BMP280;11303;50.772;19.670;2023-05-15T01:47:43;98332.31;;;10.99
22269;BMP280;11303;50.772;19.670;2023-05-15T01:49:45;98333.06;;;10.99
22269;BMP280;11303;50.772;19.670;2023-05-15T01:51:53;98335.28;;;10.97
22269;BMP280;11303;50.772;19.670;2023-05-15T01:53:58;98327.84;;;10.96
22269;BMP280;11303;50.772;19.670;2023-05-15T01:56:01;98324.13;;;10.97
22269;BMP280;11303;50.772;19.670;2023-05-15T01:58:04;98327.06;;;10.95
22269;BMP280;11303;50.772;19.670;2023-05-15T02:00:07;98321.47;;;10.93
22269;BMP280;11303;50.772;19.670;2023-05-15T02:02:09;98333.72;;;10.93
22269;BMP280;11303;50.772;19.670;2023-05-15T02:04:12;98330.78;;;10.94
22269;BMP280;11303;50.772;19.670;2023-05-15T02:06:15;98315.09;;;10.91
22269;BMP280;11303;50.772;19.670;2023-05-15T02:08:16;98312.50;;;10.91
22269;BMP280;11303;50.772;19.670;2023-05-15T02:10:18;98325.88;;;10.89
22269;BMP280;11303;50.772;19.670;2023-05-15T02:12:21;98322.91;;;10.91
22269;BMP280;11303;50.772;19.670;2023-05-15T02:14:23;98326.59;;;10.89
22269;BMP280;11303;50.772;19.670;2023-05-15T02:16:26;98326.59;;;10.89
22269;BMP280;11303;50.772;19.670;2023-05-15T02:18:28;98332.22;;;10.92
22269;BMP280;11303;50.772;19.670;2023-05-15T02:20:29;98322.22;;;10.94
22269;BMP280;11303;50.772;19.670;2023-05-15T02:22:31;98316.66;;;10.95
22269;BMP280;11303;50.772;19.670;2023-05-15T02:24:33;98304.78;;;10.94
22269;BMP280;11303;50.772;19.670;2023-05-15T02:26:55;98316.66;;;10.95
22269;BMP280;11303;50.772;19.670;2023-05-15T02:29:20;98312.56;;;10.94
22269;BMP280;11303;50.772;19.670;2023-05-15T02:31:37;98307.03;;;10.96
22269;BMP280;11303;50.772;19.670;2023-05-15T02:33:54;98298.13;;;10.97
22269;BMP280;11303;50.772;19.670;2023-05-15T02:36:01;98298.47;;;10.95
22269;BMP280;11303;50.772;19.670;2023-05-15T02:38:14;98296.19;;;10.94
22269;BMP280;11303;50.772;19.670;2023-05-15T02:40:18;98294.72;;;10.93
22269;BMP280;11303;50.772;19.670;2023-05-15T02:42:20;98301.41;;;10.94
22269;BMP280;11303;50.772;19.670;2023-05-15T02:44:23;98299.91;;;10.93
22269;BMP280;11303;50.772;19.670;2023-05-15T02:46:26;98290.59;;;10.92
22269;BMP280;11303;50.772;19.670;2023-05-15T02:48:28;98287.59;;;10.89
22269;BMP280;11303;50.772;19.670;2023-05-15T02:50:30;98286.13;;;10.88
22269;BMP280;11303;50.772;19.670;2023-05-15T02:52:34;98276.47;;;10.89
22269;BMP280;11303;50.772;19.670;2023-05-15T02:54:36;98266.41;;;10.87
22269;BMP280;11303;50.772;19.670;2023-05-15T02:56:37;98276.41;;;10.85
22269;BMP280;11303;50.772;19.670;2023-05-15T02:58:39;98275.31;;;10.86
22269;BMP280;11303;50.772;19.670;2023-05-15T03:00:41;98273.47;;;10.87
22269;BMP280;11303;50.772;19.670;2023-05-15T03:02:43;98279.00;;;10.85
22269;BMP280;11303;50.772;19.670;2023-05-15T03:04:45;98279.00;;;10.85
22269;BMP280;11303;50.772;19.670;2023-05-15T03:06:48;98271.22;;;10.85
22269;BMP280;11303;50.772;19.670;2023-05-15T03:08:49;98276.06;;;10.87
22269;BMP280;11303;50.772;19.670;2023-05-15T03:10:51;98266.00;;;10.85
22269;BMP280;11303;50.772;19.670;2023-05-15T03:12:54;98270.88;;;10.87
22269;BMP280;11303;50.772;19.670;2023-05-15T03:14:58;98266.00;;;10.85
22269;BMP280;11303;50.772;19.670;2023-05-15T03:17:00;98261.91;;;10.84
22269;BMP280;11303;50.772;19.670;2023-05-15T03:19:01;98256.34;;;10.86
22269;BMP280;11303;50.772;19.670;2023-05-15T03:21:04;98257.88;;;10.87
22269;BMP280;11303;50.772;19.670;2023-05-15T03:23:06;98260.47;;;10.87
22269;BMP280;11303;50.772;19.670;2023-05-15T03:25:11;98252.31;;;10.88
22269;BMP280;11303;50.772;19.670;2023-05-15T03:27:13;98251.56;;;10.88
22269;BMP280;11303;50.772;19.670;2023-05-15T03:29:14;98253.75;;;10.86
22269;BMP280;11303;50.772;19.670;2023-05-15T03:31:16;98244.13;;;10.86
22269;BMP280;11303;50.772;19.670;2023-05-15T03:33:17;98238.91;;;10.86
22269;BMP280;11303;50.772;19.670;2023-05-15T03:35:19;98242.28;;;10.91
22269;BMP280;11303;50.772;19.670;2023-05-15T03:37:21;98237.84;;;10.91
22269;BMP280;11303;50.772;19.670;2023-05-15T03:39:22;98241.19;;;10.92
22269;BMP280;11303;50.772;19.670;2023-05-15T03:41:24;98245.31;;;10.93
22269;BMP280;11303;50.772;19.670;2023-05-15T03:43:28;98242.03;;;10.96
22269;BMP280;11303;50.772;19.670;2023-05-15T03:45:29;98243.09;;;10.95
22269;BMP280;11303;50.772;19.670;2023-05-15T03:47:31;98220.44;;;10.95
22269;BMP280;11303;50.772;19.670;2023-05-15T03:49:32;98230.50;;;10.97
22269;BMP280;11303;50.772;19.670;2023-05-15T03:51:34;98226.81;;;10.98
22269;BMP280;11303;50.772;19.670;2023-05-15T03:53:35;98226.81;;;10.98
22269;BMP280;11303;50.772;19.670;2023-05-15T03:55:37;98225.31;;;10.97
22269;BMP280;11303;50.772;19.670;2023-05-15T03:57:39;98235.31;;;10.98
22269;BMP280;11303;50.772;19.670;2023-05-15T03:59:42;98227.94;;;11.00
22269;BMP280;11303;50.772;19.670;2023-05-15T04:01:43;98226.09;;;11.01
22269;BMP280;11303;50.772;19.670;2023-05-15T04:04:03;98237.66;;;11.03
22269;BMP280;11303;50.772;19.670;2023-05-15T04:06:05;98227.59;;;11.02
22269;BMP280;11303;50.772;19.670;2023-05-15T04:08:06;98234.28;;;11.03
22269;BMP280;11303;50.772;19.670;2023-05-15T04:10:10;98222.75;;;11.00
22269;BMP280;11303;50.772;19.670;2023-05-15T04:12:11;98226.09;;;11.01
22269;BMP280;11303;50.772;19.670;2023-05-15T04:14:13;98232.38;;;11.00
22269;BMP280;11303;50.772;19.670;2023-05-15T04:16:14;98221.97;;;11.00
22269;BMP280;11303;50.772;19.670;2023-05-15T04:18:16;98225.69;;;10.99
22269;BMP280;11303;50.772;19.670;2023-05-15T04:20:22;98227.91;;;10.97
22269;BMP280;11303;50.772;19.670;2023-05-15T04:22:24;98216.00;;;10.96
22269;BMP280;11303;50.772;19.670;2023-05-15T04:24:26;98223.47;;;10.97
22269;BMP280;11303;50.772;19.670;2023-05-15T04:26:27;98223.47;;;10.97
22269;BMP280;11303;50.772;19.670;2023-05-15T04:28:29;98221.22;;;10.96
22269;BMP280;11303;50.772;19.670;2023-05-15T04:30:32;98209.31;;;10.95
22269;BMP280;11303;50.772;19.670;2023-05-15T04:32:34;98202.66;;;10.97
22269;BMP280;11303;50.772;19.670;2023-05-15T04:34:36;98206.72;;;10.98
22269;BMP280;11303;50.772;19.670;2023-05-15T04:36:38;98200.44;;;10.99
22269;BMP280;11303;50.772;19.670;2023-05-15T04:38:43;98206.78;;;11.02
22269;BMP280;11303;50.772;19.670;2023-05-15T04:40:44;98199.75;;;11.02
22269;BMP280;11303;50.772;19.670;2023-05-15T04:42:46;98200.91;;;11.05
22269;BMP280;11303;50.772;19.670;2023-05-15T04:44:48;98202.34;;;11.06
22269;BMP280;11303;50.772;19.670;2023-05-15T04:46:49;98194.22;;;11.07
22269;BMP280;11303;50.772;19.670;2023-05-15T04:48:51;98195.03;;;11.12
22269;BMP280;11303;50.772;19.670;2023-05-15T04:50:52;98183.53;;;11.13
22269;BMP280;11303;50.772;19.670;2023-05-15T04:52:54;98188.31;;;11.11
22269;BMP280;11303;50.772;19.670;2023-05-15T04:54:56;98191.69;;;11.15
22269;BMP280;11303;50.772;19.670;2023-05-15T04:56:57;98190.59;;;11.16
22269;BMP280;11303;50.772;19.670;2023-05-15T04:58:59;98181.69;;;11.17
22269;BMP280;11303;50.772;19.670;2023-05-15T05:01:01;98176.91;;;11.19
22269;BMP280;11303;50.772;19.670;2023-05-15T05:03:04;98178.72;;;11.18
22269;BMP280;11303;50.772;19.670;2023-05-15T05:05:06;98166.88;;;11.21
22269;BMP280;11303;50.772;19.670;2023-05-15T05:07:08;98162.41;;;11.21
22269;BMP280;11303;50.772;19.670;2023-05-15T05:09:09;98158.00;;;11.25
22269;BMP280;11303;50.772;19.670;2023-05-15T05:11:11;98153.97;;;11.28
22269;BMP280;11303;50.772;19.670;2023-05-15T05:13:13;98154.34;;;11.34
22269;BMP280;11303;50.772;19.670;2023-05-15T05:15:14;98145.13;;;11.36
22269;BMP280;11303;50.772;19.670;2023-05-15T05:17:16;98152.91;;;11.36
22269;BMP280;11303;50.772;19.670;2023-05-15T05:19:17;98141.41;;;11.37
22269;BMP280;11303;50.772;19.670;2023-05-15T05:21:19;98142.13;;;11.38
22269;BMP280;11303;50.772;19.670;2023-05-15T05:23:21;98121.34;;;11.41
22269;BMP280;11303;50.772;19.670;2023-05-15T05:25:22;98123.28;;;11.48
22269;BMP280;11303;50.772;19.670;2023-05-15T05:27:24;98121.13;;;11.57
22269;BMP280;11303;50.772;19.670;2023-05-15T05:29:26;98127.16;;;11.68
22269;BMP280;11303;50.772;19.670;2023-05-15T05:31:28;98136.50;;;11.73
22269;BMP280;11303;50.772;19.670;2023-05-15T05:33:29;98143.97;;;11.75
22269;BMP280;11303;50.772;19.670;2023-05-15T05:35:31;98141.72;;;11.73
22269;BMP280;11303;50.772;19.670;2023-05-15T05:37:32;98146.91;;;11.73
22269;BMP280;11303;50.772;19.670;2023-05-15T05:39:34;98154.00;;;11.73
22269;BMP280;11303;50.772;19.670;2023-05-15T05:41:35;98164.41;;;11.73
22269;BMP280;11303;50.772;19.670;2023-05-15T05:43:37;98149.50;;;11.70
22269;BMP280;11303;50.772;19.670;2023-05-15T05:45:39;98148.72;;;11.69
22269;BMP280;11303;50.772;19.670;2023-05-15T05:47:41;98154.72;;;11.73
22269;BMP280;11303;50.772;19.670;2023-05-15T05:49:42;98150.97;;;11.71
22269;BMP280;11303;50.772;19.670;2023-05-15T05:51:47;98148.00;;;11.72
22269;BMP280;11303;50.772;19.670;2023-05-15T05:53:49;98136.50;;;11.73
22269;BMP280;11303;50.772;19.670;2023-05-15T05:55:50;98139.13;;;11.77
22269;BMP280;11303;50.772;19.670;2023-05-15T05:57:52;98135.06;;;11.79
22269;BMP280;11303;50.772;19.670;2023-05-15T05:59:54;98122.84;;;11.87
22269;BMP280;11303;50.772;19.670;2023-05-15T06:01:55;98130.75;;;11.98
22269;BMP280;11303;50.772;19.670;2023-05-15T06:03:57;98118.44;;;11.98
22269;BMP280;11303;50.772;19.670;2023-05-15T06:05:59;98110.66;;;12.05
22269;BMP280;11303;50.772;19.670;2023-05-15T06:08:01;98109.59;;;12.14
22269;BMP280;11303;50.772;19.670;2023-05-15T06:10:04;98100.00;;;12.25
22269;BMP280;11303;50.772;19.670;2023-05-15T06:12:07;98098.16;;;12.33
22269;BMP280;11303;50.772;19.670;2023-05-15T06:14:09;98104.50;;;12.32
22269;BMP280;11303;50.772;19.670;2023-05-15T06:16:11;98102.28;;;12.34
22269;BMP280;11303;50.772;19.670;2023-05-15T06:18:12;98095.56;;;12.33
22269;BMP280;11303;50.772;19.670;2023-05-15T06:20:14;98107.47;;;12.30
22269;BMP280;11303;50.772;19.670;2023-05-15T06:22:16;98098.16;;;12.29
22269;BMP280;11303;50.772;19.670;2023-05-15T06:24:17;98098.16;;;12.29
22269;BMP280;11303;50.772;19.670;2023-05-15T06:26:19;98103.72;;;12.27
22269;BMP280;11303;50.772;19.670;2023-05-15T06:28:22;98084.00;;;12.26
22269;BMP280;11303;50.772;19.670;2023-05-15T06:30:23;98081.78;;;12.29
22269;BMP280;11303;50.772;19.670;2023-05-15T06:32:25;98082.50;;;12.29
22269;BMP280;11303;50.772;19.670;2023-05-15T06:34:27;98092.56;;;12.27
22269;BMP280;11303;50.772;19.670;2023-05-15T06:36:28;98074.69;;;12.29
22269;BMP280;11303;50.772;19.670;2023-05-15T06:38:30;98073.97;;;12.32
22269;BMP280;11303;50.772;19.670;2023-05-15T06:40:32;98065.03;;;12.37
22269;BMP280;11303;50.772;19.670;2023-05-15T06:42:33;98073.25;;;12.42
22269;BMP280;11303;50.772;19.670;2023-05-15T06:44:35;98069.56;;;12.51
22269;BMP280;11303;50.772;19.670;2023-05-15T06:46:36;98065.88;;;12.55
22269;BMP280;11303;50.772;19.670;2023-05-15T06:48:38;98067.75;;;12.62
22269;BMP280;11303;50.772;19.670;2023-05-15T06:50:40;98074.09;;;12.68
22269;BMP280;11303;50.772;19.670;2023-05-15T06:52:42;98067.03;;;12.69
22269;BMP280;11303;50.772;19.670;2023-05-15T06:54:43;98061.41;;;12.66
22269;BMP280;11303;50.772;19.670;2023-05-15T06:56:45;98062.56;;;12.73
22269;BMP280;11303;50.772;19.670;2023-05-15T06:58:46;98068.56;;;12.88
22269;BMP280;11303;50.772;19.670;2023-05-15T07:00:48;98060.00;;;12.94
22269;BMP280;11303;50.772;19.670;2023-05-15T07:02:49;98060.38;;;13.11
22269;BMP280;11303;50.772;19.670;2023-05-15T07:04:51;98055.16;;;13.32
22269;BMP280;11303;50.772;19.670;2023-05-15T07:06:53;98045.09;;;13.34
22269;BMP280;11303;50.772;19.670;2023-05-15T07:08:54;98046.25;;;13.37
22269;BMP280;11303;50.772;19.670;2023-05-15T07:10:56;98041.00;;;13.40
22269;BMP280;11303;50.772;19.670;2023-05-15T07:12:57;98049.94;;;13.54
22269;BMP280;11303;50.772;19.670;2023-05-15T07:14:59;98047.31;;;13.64
22269;BMP280;11303;50.772;19.670;2023-05-15T07:17:00;98040.94;;;13.73
22269;BMP280;11303;50.772;19.670;2023-05-15T07:19:02;98049.53;;;13.70
22269;BMP280;11303;50.772;19.670;2023-05-15T07:21:04;98040.88;;;13.94
22269;BMP280;11303;50.772;19.670;2023-05-15T07:23:05;98045.72;;;13.99
22269;BMP280;11303;50.772;19.670;2023-05-15T07:25:07;98043.50;;;13.83
22269;BMP280;11303;50.772;19.670;2023-05-15T07:27:09;98034.63;;;13.59
22269;BMP280;11303;50.772;19.670;2023-05-15T07:29:10;98042.47;;;13.49
22269;BMP280;11303;50.772;19.670;2023-05-15T07:31:13;98047.72;;;13.41
22269;BMP280;11303;50.772;19.670;2023-05-15T07:33:14;98052.19;;;13.34
22269;BMP280;11303;50.772;19.670;2023-05-15T07:35:16;98049.56;;;13.26
22269;BMP280;11303;50.772;19.670;2023-05-15T07:37:18;98049.56;;;13.34
22269;BMP280;11303;50.772;19.670;2023-05-15T07:39:20;98051.44;;;13.37
22269;BMP280;11303;50.772;19.670;2023-05-15T07:41:21;98057.41;;;13.30
22269;BMP280;11303;50.772;19.670;2023-05-15T07:43:23;98060.34;;;13.18
22269;BMP280;11303;50.772;19.670;2023-05-15T07:45:24;98060.38;;;13.11
22269;BMP280;11303;50.772;19.670;2023-05-15T07:47:27;98061.88;;;13.08
22269;BMP280;11303;50.772;19.670;2023-05-15T07:49:28;98058.91;;;13.10
22269;BMP280;11303;50.772;19.670;2023-05-15T07:51:30;98065.63;;;13.07
22269;BMP280;11303;50.772;19.670;2023-05-15T07:53:32;98064.47;;;13.08
22269;BMP280;11303;50.772;19.670;2023-05-15T07:55:33;98067.47;;;13.14
22269;BMP280;11303;50.772;19.670;2023-05-15T07:57:35;98065.97;;;13.16
22269;BMP280;11303;50.772;19.670;2023-05-15T07:59:37;98067.47;;;13.21
22269;BMP280;11303;50.772;19.670;2023-05-15T08:01:39;98062.25;;;13.21
22269;BMP280;11303;50.772;19.670;2023-05-15T08:03:40;98068.22;;;13.21
22269;BMP280;11303;50.772;19.670;2023-05-15T08:05:42;98054.81;;;13.23
22269;BMP280;11303;50.772;19.670;2023-05-15T08:07:44;98060.78;;;13.31
22269;BMP280;11303;50.772;19.670;2023-05-15T08:09:45;98060.00;;;13.30
22269;BMP280;11303;50.772;19.670;2023-05-15T08:11:47;98067.44;;;13.32
22269;BMP280;11303;50.772;19.670;2023-05-15T08:13:48;98054.44;;;13.35
22269;BMP280;11303;50.772;19.670;2023-05-15T08:15:50;98060.00;;;13.48
22269;BMP280;11303;50.772;19.670;2023-05-15T08:17:52;98059.25;;;13.62
22269;BMP280;11303;50.772;19.670;2023-05-15T08:19:54;98057.38;;;13.70
22269;BMP280;11303;50.772;19.670;2023-05-15T08:21:56;98062.22;;;13.60
22269;BMP280;11303;50.772;19.670;2023-05-15T08:23:58;98061.50;;;13.49
22269;BMP280;11303;50.772;19.670;2023-05-15T08:26:00;98057.78;;;13.43
22269;BMP280;11303;50.772;19.670;2023-05-15T08:28:03;98059.63;;;13.50
22269;BMP280;11303;50.772;19.670;2023-05-15T08:30:05;98059.97;;;13.59
22269;BMP280;11303;50.772;19.670;2023-05-15T08:32:08;98059.22;;;13.73
22269;BMP280;11303;50.772;19.670;2023-05-15T08:34:09;98068.53;;;13.77
22269;BMP280;11303;50.772;19.670;2023-05-15T08:36:11;98069.28;;;13.78
22269;BMP280;11303;50.772;19.670;2023-05-15T08:38:13;98065.22;;;13.62
22269;BMP280;11303;50.772;19.670;2023-05-15T08:40:14;98070.06;;;13.46
22269;BMP280;11303;50.772;19.670;2023-05-15T08:42:31;98069.34;;;13.42
22269;BMP280;11303;50.772;19.670;2023-05-15T08:44:35;98070.09;;;13.50
22269;BMP280;11303;50.772;19.670;2023-05-15T08:46:37;98068.94;;;13.54
22269;BMP280;11303;50.772;19.670;2023-05-15T08:48:40;98071.53;;;13.65
22269;BMP280;11303;50.772;19.670;2023-05-15T08:50:43;98065.91;;;13.84
22269;BMP280;11303;50.772;19.670;2023-05-15T08:52:46;98064.41;;;13.94
22269;BMP280;11303;50.772;19.670;2023-05-15T08:54:48;98061.38;;;14.03
22269;BMP280;11303;50.772;19.670;2023-05-15T08:56:51;98063.22;;;14.10
22269;BMP280;11303;50.772;19.670;2023-05-15T08:58:54;98067.69;;;14.20
22269;BMP280;11303;50.772;19.670;2023-05-15T09:00:55;98069.53;;;14.16
22269;BMP280;11303;50.772;19.670;2023-05-15T09:03:00;98066.97;;;14.12
22269;BMP280;11303;50.772;19.670;2023-05-15T09:05:06;98071.81;;;14.14
22269;BMP280;11303;50.772;19.670;2023-05-15T09:07:08;98074.03;;;14.15
22269;BMP280;11303;50.772;19.670;2023-05-15T09:09:10;98064.69;;;14.18
22269;BMP280;11303;50.772;19.670;2023-05-15T09:11:14;98067.72;;;14.09
22269;BMP280;11303;50.772;19.670;2023-05-15T09:13:16;98067.34;;;14.11
22269;BMP280;11303;50.772;19.670;2023-05-15T09:15:18;98063.59;;;14.12
22269;BMP280;11303;50.772;19.670;2023-05-15T09:17:25;98065.81;;;14.17
22269;BMP280;11303;50.772;19.670;2023-05-15T09:19:27;98059.84;;;14.20
22269;BMP280;11303;50.772;19.670;2023-05-15T09:21:29;98060.59;;;14.20
22269;BMP280;11303;50.772;19.670;2023-05-15T09:23:34;98062.47;;;14.20
22269;BMP280;11303;50.772;19.670;2023-05-15T09:25:40;98054.94;;;14.29
22269;BMP280;11303;50.772;19.670;2023-05-15T09:27:42;98051.88;;;14.45
22269;BMP280;11303;50.772;19.670;2023-05-15T09:29:44;98049.88;;;14.63
22269;BMP280;11303;50.772;19.670;2023-05-15T09:31:46;98064.78;;;14.74
22269;BMP280;11303;50.772;19.670;2023-05-15T09:33:58;98063.97;;;14.84
22269;BMP280;11303;50.772;19.670;2023-05-15T09:36:02;98070.63;;;14.92
22269;BMP280;11303;50.772;19.670;2023-05-15T09:38:09;98069.19;;;14.87
22269;BMP280;11303;50.772;19.670;2023-05-15T09:40:11;98077.19;;;14.62
22269;BMP280;11303;50.772;19.670;2023-05-15T09:42:13;98075.34;;;14.52
22269;BMP280;11303;50.772;19.670;2023-05-15T09:44:25;98076.13;;;14.49
22269;BMP280;11303;50.772;19.670;2023-05-15T09:46:27;98074.63;;;14.48
22269;BMP280;11303;50.772;19.670;2023-05-15T09:48:29;98070.81;;;14.60
22269;BMP280;11303;50.772;19.670;2023-05-15T09:50:36;98071.81;;;14.84
22269;BMP280;11303;50.772;19.670;2023-05-15T09:52:38;98071.31;;;15.03
22269;BMP280;11303;50.772;19.670;2023-05-15T09:54:43;98074.16;;;15.20
22269;BMP280;11303;50.772;19.670;2023-05-15T09:56:48;98074.50;;;15.25
22269;BMP280;11303;50.772;19.670;2023-05-15T09:58:59;98077.41;;;15.35
22269;BMP280;11303;50.772;19.670;2023-05-15T10:01:01;98073.53;;;15.50
22269;BMP280;11303;50.772;19.670;2023-05-15T10:03:05;98059.22;;;15.58
22269;BMP280;11303;50.772;19.670;2023-05-15T10:05:10;98071.25;;;15.56
22269;BMP280;11303;50.772;19.670;2023-05-15T10:07:20;98071.19;;;15.59
22269;BMP280;11303;50.772;19.670;2023-05-15T10:09:29;98067.63;;;15.77
22269;BMP280;11303;50.772;19.670;2023-05-15T10:11:39;98080.16;;;15.62
22269;BMP280;11303;50.772;19.670;2023-05-15T10:13:41;98078.41;;;15.48
22269;BMP280;11303;50.772;19.670;2023-05-15T10:15:43;98086.84;;;15.25
22269;BMP280;11303;50.772;19.670;2023-05-15T10:17:49;98085.06;;;15.11
22269;BMP280;11303;50.772;19.670;2023-05-15T10:19:51;98087.00;;;15.00
22269;BMP280;11303;50.772;19.670;2023-05-15T10:21:59;98085.47;;;15.10
22269;BMP280;11303;50.772;19.670;2023-05-15T10:24:01;98077.31;;;15.45
22269;BMP280;11303;50.772;19.670;2023-05-15T10:26:14;98082.28;;;15.74
22269;BMP280;11303;50.772;19.670;2023-05-15T10:28:18;98084.50;;;15.76
22269;BMP280;11303;50.772;19.670;2023-05-15T10:30:20;98079.91;;;15.83
22269;BMP280;11303;50.772;19.670;2023-05-15T10:32:23;98094.28;;;16.06
22269;BMP280;11303;50.772;19.670;2023-05-15T10:34:26;98093.66;;;15.95
22269;BMP280;11303;50.772;19.670;2023-05-15T10:36:30;98097.28;;;15.70
22269;BMP280;11303;50.772;19.670;2023-05-15T10:38:33;98086.38;;;15.75
22269;BMP280;11303;50.772;19.670;2023-05-15T10:40:36;98096.81;;;15.79
22269;BMP280;11303;50.772;19.670;2023-05-15T10:42:40;98096.97;;;15.99
22269;BMP280;11303;50.772;19.670;2023-05-15T10:44:42;98098.69;;;16.13
22269;BMP280;11303;50.772;19.670;2023-05-15T10:46:44;98093.84;;;16.11
22269;BMP280;11303;50.772;19.670;2023-05-15T10:48:46;98101.56;;;16.22
22269;BMP280;11303;50.772;19.670;2023-05-15T10:50:48;98090.22;;;16.32
22269;BMP280;11303;50.772;19.670;2023-05-15T10:52:50;98097.88;;;16.46
22269;BMP280;11303;50.772;19.670;2023-05-15T10:54:52;98095.50;;;16.83
22269;BMP280;11303;50.772;19.670;2023-05-15T10:56:55;98095.44;;;16.86
22269;BMP280;11303;50.772;19.670;2023-05-15T10:59:04;98079.97;;;16.68
22269;BMP280;11303;50.772;19.670;2023-05-15T11:01:23;98077.44;;;17.12
22269;BMP280;11303;50.772;19.670;2023-05-15T11:03:35;98074.91;;;17.28
22269;BMP280;11303;50.772;19.670;2023-05-15T11:06:09;98071.25;;;17.22
22269;BMP280;11303;50.772;19.670;2023-05-15T11:10:36;98066.38;;;17.84
22269;BMP280;11303;50.772;19.670;2023-05-15T11:12:57;98073.56;;;18.36
22269;BMP280;11303;50.772;19.670;2023-05-15T11:17:05;98073.03;;;18.58
22269;BMP280;11303;50.772;19.670;2023-05-15T11:24:14;98087.31;;;17.48
22269;BMP280;11303;50.772;19.670;2023-05-15T11:26:31;98079.44;;;17.48
22269;BMP280;11303;50.772;19.670;2023-05-15T11:28:40;98076.38;;;17.49
22269;BMP280;11303;50.772;19.670;2023-05-15T11:30:42;98072.88;;;17.36
22269;BMP280;11303;50.772;19.670;2023-05-15T11:32:55;98068.00;;;17.34
22269;BMP280;11303;50.772;19.670;2023-05-15T11:34:59;98073.50;;;17.44
22269;BMP280;11303;50.772;19.670;2023-05-15T11:37:01;98071.34;;;17.79
22269;BMP280;11303;50.772;19.670;2023-05-15T11:39:09;98066.28;;;18.24
22269;BMP280;11303;50.772;19.670;2023-05-15T11:41:18;98064.03;;;18.06
22269;BMP280;11303;50.772;19.670;2023-05-15T11:43:28;98066.44;;;18.17
22269;BMP280;11303;50.772;19.670;2023-05-15T11:45:39;98061.44;;;18.39
22269;BMP280;11303;50.772;19.670;2023-05-15T11:47:41;98052.91;;;18.51
22269;BMP280;11303;50.772;19.670;2023-05-15T11:49:46;98046.56;;;18.32
22269;BMP280;11303;50.772;19.670;2023-05-15T11:51:49;98031.78;;;17.86
22269;BMP280;11303;50.772;19.670;2023-05-15T11:53:53;98036.50;;;17.54
22269;BMP280;11303;50.772;19.670;2023-05-15T11:55:55;98032.81;;;17.32
22269;BMP280;11303;50.772;19.670;2023-05-15T11:57:56;98034.44;;;17.26
22269;BMP280;11303;50.772;19.670;2023-05-15T11:59:58;98036.03;;;17.20